Time;durP1;ratioP1;P1;durP2;ratioP2;P2;SDS_P1;SDS_P2;PMS_P1;PMS_P2;Temp;Humidity;BMP_temperature;BMP_pressure;BME280_temperature;BME280_humidity;BME280_pressure;Samples;Min_cycle;Max_cycle;Signal;HPM_P1;HPM_P2
2022/11/17 00:00:37;;;;;;;4.68;2.33;;;;;;;10.21;100.00;98537.69;5103701;28;20055;-72
2022/11/17 00:03:04;;;;;;;6.13;2.53;;;;;;;10.24;100.00;98529.47;5103606;28;20178;-72
2022/11/17 00:05:31;;;;;;;6.43;2.40;;;;;;;10.27;100.00;98525.78;5106373;28;20400;-72
2022/11/17 00:07:57;;;;;;;6.38;2.30;;;;;;;10.26;100.00;98517.00;5108667;28;20141;-72
2022/11/17 00:10:24;;;;;;;3.55;2.05;;;;;;;10.30;100.00;98514.97;5101792;28;21546;-72
2022/11/17 00:15:35;;;;;;;5.07;2.67;;;;;;;10.26;100.00;98498.47;5103872;28;20691;-72
2022/11/17 00:23:47;;;;;;;6.40;2.53;;;;;;;10.26;100.00;98493.19;5105584;28;20051;-71
2022/11/17 00:26:25;;;;;;;4.78;2.10;;;;;;;10.26;100.00;98490.53;5102858;28;20151;-72
2022/11/17 00:28:53;;;;;;;6.90;2.63;;;;;;;10.29;100.00;98492.97;5103210;28;20058;-70
2022/11/17 00:34:09;;;;;;;7.78;2.10;;;;;;;10.28;100.00;98485.97;5100793;28;20489;-74
2022/11/17 00:36:40;;;;;;;6.40;2.10;;;;;;;10.34;100.00;98484.69;5106943;28;20512;-71
2022/11/17 00:39:08;;;;;;;5.55;2.65;;;;;;;10.35;100.00;98481.06;5104823;28;20399;-70
2022/11/17 00:41:35;;;;;;;2.60;1.80;;;;;;;10.22;100.00;98452.06;5101877;28;20498;-70
2022/11/17 00:44:02;;;;;;;4.63;1.77;;;;;;;10.24;100.00;98446.63;5108376;28;20047;-71
2022/11/17 00:46:28;;;;;;;4.88;2.17;;;;;;;10.31;100.00;98459.28;5103041;28;20792;-73
2022/11/17 00:48:55;;;;;;;5.88;2.15;;;;;;;10.28;100.00;98448.09;5098883;28;20584;-69
2022/11/17 00:51:22;;;;;;;4.03;1.90;;;;;;;10.19;100.00;98431.13;5102304;28;20059;-72
2022/11/17 00:53:50;;;;;;;6.03;2.60;;;;;;;10.31;100.00;98438.13;5104853;28;20047;-73
2022/11/17 00:56:17;;;;;;;6.57;2.28;;;;;;;10.28;100.00;98430.41;5103218;28;20079;-71
2022/11/17 00:58:43;;;;;;;5.45;2.35;;;;;;;10.24;100.00;98417.53;5096996;28;20040;-71
2022/11/17 01:01:10;;;;;;;4.10;2.30;;;;;;;10.18;100.00;98416.19;5099463;28;20047;-69
2022/11/17 01:03:37;;;;;;;5.60;2.45;;;;;;;10.14;100.00;98410.28;5101562;28;20047;-70
2022/11/17 01:06:09;;;;;;;4.93;2.30;;;;;;;10.12;100.00;98412.22;5097706;28;20043;-70
2022/11/17 01:08:36;;;;;;;3.55;2.13;;;;;;;10.19;100.00;98413.47;5104761;28;20050;-69
2022/11/17 01:11:05;;;;;;;3.65;1.85;;;;;;;10.19;100.00;98402.03;5097005;28;20501;-69
2022/11/17 01:13:32;;;;;;;5.45;2.25;;;;;;;10.28;100.00;98405.78;5105352;28;20441;-69
2022/11/17 01:16:17;;;;;;;5.00;1.67;;;;;;;10.33;100.00;98414.19;5103414;28;20043;-69
2022/11/17 01:18:47;;;;;;;4.47;1.92;;;;;;;10.36;100.00;98406.03;5101360;28;20555;-72
2022/11/17 01:21:20;;;;;;;5.13;2.25;;;;;;;10.38;100.00;98406.75;5095880;28;20126;-70
2022/11/17 01:23:48;;;;;;;6.55;2.28;;;;;;;10.33;100.00;98387.75;5102461;28;20047;-71
2022/11/17 01:26:18;;;;;;;4.78;1.95;;;;;;;10.35;100.00;98389.31;5105788;28;20071;-70
2022/11/17 01:28:46;;;;;;;8.57;2.30;;;;;;;10.42;100.00;98390.50;5099637;28;20573;-71
2022/11/17 01:31:15;;;;;;;3.85;2.10;;;;;;;10.45;100.00;98389.44;5095502;28;20147;-70
2022/11/17 01:33:42;;;;;;;7.05;2.53;;;;;;;10.43;100.00;98375.47;5098485;28;20711;-70
2022/11/17 01:36:14;;;;;;;6.85;2.20;;;;;;;10.48;100.00;98376.81;5098602;28;20066;-70
2022/11/17 01:38:41;;;;;;;6.72;2.22;;;;;;;10.55;100.00;98364.75;5100880;28;20051;-69
2022/11/17 01:41:19;;;;;;;6.82;2.60;;;;;;;10.52;100.00;98365.03;5095830;27;20119;-71
2022/11/17 01:43:46;;;;;;;4.80;2.28;;;;;;;10.53;100.00;98357.94;5103370;28;20787;-69
2022/11/17 01:46:34;;;;;;;6.07;2.30;;;;;;;10.50;100.00;98344.94;5105196;28;20130;-71
2022/11/17 01:49:18;;;;;;;4.00;2.22;;;;;;;10.48;100.00;98344.22;5104873;28;20829;-71
2022/11/17 01:51:47;;;;;;;3.63;2.10;;;;;;;10.45;100.00;98336.50;5099934;28;20096;-69
2022/11/17 01:54:18;;;;;;;5.55;2.30;;;;;;;10.39;100.00;98318.50;5104263;28;20056;-70
2022/11/17 01:56:48;;;;;;;5.03;2.20;;;;;;;10.41;100.00;98321.84;5104949;28;20047;-71
2022/11/17 01:59:21;;;;;;;4.28;1.63;;;;;;;10.41;100.00;98319.19;5091439;28;20063;-70
2022/11/17 02:01:54;;;;;;;5.82;2.25;;;;;;;10.38;100.00;98309.72;5097791;28;20048;-69
2022/11/17 02:04:42;;;;;;;4.93;1.92;;;;;;;10.38;100.00;98306.22;5099989;28;20089;-71
2022/11/17 02:07:24;;;;;;;4.95;2.20;;;;;;;10.35;100.00;98302.00;5099674;28;20144;-70
2022/11/17 02:09:53;;;;;;;4.40;2.05;;;;;;;10.35;100.00;98293.22;5103709;28;20091;-71
2022/11/17 02:12:22;;;;;;;4.72;1.80;;;;;;;10.18;100.00;98266.31;5099392;28;20106;-71
2022/11/17 02:14:49;;;;;;;7.13;2.17;;;;;;;10.30;100.00;98290.09;5104516;28;20043;-71
2022/11/17 02:17:17;;;;;;;4.28;2.40;;;;;;;10.31;100.00;98289.13;5103192;28;20485;-71
2022/11/17 02:19:53;;;;;;;3.63;2.05;;;;;;;10.17;100.00;98271.69;5099325;28;20414;-69
2022/11/17 02:22:38;;;;;;;4.43;2.20;;;;;;;10.30;100.00;98284.81;5098847;28;20047;-72
2022/11/17 02:25:28;;;;;;;5.68;2.72;;;;;;;10.28;100.00;98282.28;5105113;28;20105;-69
2022/11/17 02:28:18;;;;;;;6.72;2.45;;;;;;;10.26;100.00;98270.13;5098846;28;20143;-68
2022/11/17 02:30:57;;;;;;;4.32;2.10;;;;;;;10.06;100.00;98247.91;5099014;28;20039;-69
2022/11/17 02:33:56;;;;;;;4.90;2.55;;;;;;;10.13;100.00;98268.44;5102601;28;20063;-70
2022/11/17 02:36:35;;;;;;;4.93;2.53;;;;;;;10.08;100.00;98270.59;5100597;28;20075;-69
2022/11/17 02:39:46;;;;;;;6.38;1.98;;;;;;;9.99;100.00;98259.91;5104425;28;20649;-72
2022/11/17 02:42:19;;;;;;;6.75;2.47;;;;;;;9.89;100.00;98258.97;5036703;28;20040;-70
2022/11/17 02:44:54;;;;;;;4.38;2.55;;;;;;;9.78;100.00;98255.31;5091731;28;20054;-70
2022/11/17 02:47:26;;;;;;;5.15;2.40;;;;;;;9.55;100.00;98231.66;5100497;28;20048;-70
2022/11/17 02:49:59;;;;;;;8.43;3.05;;;;;;;9.59;100.00;98238.38;5103142;28;20549;-70
2022/11/17 02:52:28;;;;;;;6.38;2.75;;;;;;;9.53;100.00;98244.13;5101160;28;20044;-70
2022/11/17 02:55:00;;;;;;;5.35;2.63;;;;;;;9.46;100.00;98234.03;5103161;28;20563;-70
2022/11/17 02:57:31;;;;;;;5.57;2.58;;;;;;;9.45;100.00;98240.25;5101293;28;20044;-70
2022/11/17 03:00:02;;;;;;;4.82;2.67;;;;;;;9.42;100.00;98244.97;5096583;28;20401;-69
2022/11/17 03:02:44;;;;;;;5.32;2.80;;;;;;;9.37;100.00;98236.53;5097509;28;20162;-69
2022/11/17 03:05:26;;;;;;;5.68;2.38;;;;;;;9.35;100.00;98231.38;5092207;28;20130;-70
2022/11/17 03:08:11;;;;;;;7.38;2.80;;;;;;;9.29;100.00;98225.69;5106913;28;20536;-69
2022/11/17 03:10:55;;;;;;;8.18;2.90;;;;;;;9.30;100.00;98216.81;5098612;28;20063;-70
2022/11/17 03:13:43;;;;;;;6.70;2.67;;;;;;;9.28;100.00;98206.41;5107388;28;20056;-70
2022/11/17 03:16:36;;;;;;;3.95;2.80;;;;;;;9.25;100.00;98208.44;5107139;28;20333;-70
2022/11/17 03:19:16;;;;;;;7.47;2.70;;;;;;;9.10;100.00;98187.50;5108400;28;20499;-72
2022/11/17 03:22:10;;;;;;;7.18;2.63;;;;;;;9.26;100.00;98208.31;5103304;28;20731;-71
2022/11/17 03:24:50;;;;;;;5.85;3.03;;;;;;;9.24;100.00;98199.66;5101949;28;20539;-72
2022/11/17 03:27:26;;;;;;;6.50;2.80;;;;;;;9.23;100.00;98195.34;5098067;28;20052;-70
2022/11/17 03:29:58;;;;;;;6.78;2.80;;;;;;;9.28;100.00;98185.28;5105661;28;20043;-71
2022/11/17 03:32:30;;;;;;;7.43;3.08;;;;;;;9.26;100.00;98187.19;5097886;28;20126;-71
2022/11/17 03:35:04;;;;;;;5.43;2.85;;;;;;;9.18;100.00;98176.34;5105225;27;20048;-71
2022/11/17 03:37:35;;;;;;;4.82;3.00;;;;;;;8.93;100.00;98144.88;5108977;28;20385;-71
2022/11/17 03:40:03;;;;;;;;;;;;;;;9.12;100.00;98171.56;5106965;28;20142;-71
2022/11/17 03:42:33;;;;;;;7.13;3.05;;;;;;;9.06;100.00;98157.03;5099420;28;19923;-71
2022/11/17 03:45:09;;;;;;;3.22;2.60;;;;;;;9.06;100.00;98162.31;5107399;28;20046;-72
2022/11/17 03:47:36;;;;;;;4.50;2.70;;;;;;;9.09;100.00;98156.78;5106446;28;20121;-72
2022/11/17 03:50:15;;;;;;;5.45;2.85;;;;;;;9.03;100.00;98156.41;5104808;28;20047;-73
2022/11/17 03:52:43;;;;;;;4.75;2.85;;;;;;;9.08;100.00;98164.81;5103012;28;20061;-73
2022/11/17 03:55:10;;;;;;;5.53;3.10;;;;;;;9.05;100.00;98163.25;5109558;28;20051;-73
2022/11/17 03:57:58;;;;;;;6.63;2.90;;;;;;;9.04;100.00;98169.50;5106238;28;20281;-72
2022/11/17 04:00:25;;;;;;;5.13;3.00;;;;;;;8.94;100.00;98155.31;5102742;28;20047;-73
2022/11/17 04:02:57;;;;;;;4.20;2.60;;;;;;;9.04;100.00;98161.56;5098769;28;20640;-73
2022/11/17 04:05:24;;;;;;;6.45;3.00;;;;;;;9.07;100.00;98158.69;5107567;28;20082;-73
2022/11/17 04:07:50;;;;;;;3.70;2.53;;;;;;;9.09;100.00;98145.38;5108052;28;20051;-74
2022/11/17 04:10:19;;;;;;;5.28;2.70;;;;;;;8.87;100.00;98113.66;5099890;28;20128;-74
2022/11/17 04:18:18;;;;;;;5.75;2.92;;;;;;;9.12;100.00;98137.25;5100933;28;20062;-72
2022/11/17 04:20:49;;;;;;;4.32;2.72;;;;;;;9.12;100.00;98134.59;5103559;28;20490;-72
2022/11/17 04:23:16;;;;;;;4.13;2.72;;;;;;;9.19;100.00;98141.06;5104004;28;20066;-73
2022/11/17 04:28:40;;;;;;;5.00;2.53;;;;;;;9.15;100.00;98140.47;5103829;28;20059;-73
2022/11/17 04:31:15;;;;;;;8.00;2.83;;;;;;;9.23;100.00;98133.75;5106428;28;20131;-72
2022/11/17 04:33:47;;;;;;;3.30;2.47;;;;;;;9.21;100.00;98135.69;5103114;28;20055;-71
2022/11/17 04:36:25;;;;;;;4.43;2.22;;;;;;;9.28;100.00;98142.19;5104055;28;20070;-73
2022/11/17 04:38:54;;;;;;;3.22;2.20;;;;;;;9.29;100.00;98141.19;5107400;28;20056;-73
2022/11/17 04:44:09;;;;;;;6.43;2.03;;;;;;;9.26;100.00;98120.31;5107638;28;20044;-70
2022/11/17 04:46:37;;;;;;;5.65;2.10;;;;;;;9.37;100.00;98133.53;5094883;28;20048;-73
2022/11/17 04:49:05;;;;;;;3.92;1.90;;;;;;;9.44;100.00;98140.84;5098957;28;20044;-70
2022/11/17 04:51:32;;;;;;;2.42;2.00;;;;;;;9.42;100.00;98132.22;5096454;27;20048;-70
2022/11/17 04:54:00;;;;;;;3.47;2.10;;;;;;;9.28;100.00;98108.69;5097162;28;20115;-73
2022/11/17 04:56:28;;;;;;;6.40;2.50;;;;;;;9.48;100.00;98144.94;5099272;28;20070;-72
2022/11/17 04:58:55;;;;;;;4.60;1.85;;;;;;;9.28;100.00;98119.25;5095636;28;20139;-73
2022/11/17 05:01:23;;;;;;;10.32;2.13;;;;;;;9.40;100.00;98128.84;5095517;28;20174;-73
2022/11/17 05:03:55;;;;;;;3.05;1.90;;;;;;;9.34;100.00;98121.41;5093631;28;20146;-70
2022/11/17 05:06:27;;;;;;;4.47;1.85;;;;;;;9.44;100.00;98130.28;5099553;28;20134;-71
2022/11/17 05:08:55;;;;;;;2.67;1.92;;;;;;;9.30;100.00;98104.09;5104630;28;20101;-73
2022/11/17 05:14:09;;;;;;;3.83;2.25;;;;;;;9.30;100.00;98112.03;5105397;28;20420;-72
2022/11/17 05:19:27;;;;;;;3.60;2.03;;;;;;;9.44;100.00;98140.03;5103020;28;20049;-71
2022/11/17 05:21:54;;;;;;;4.80;2.22;;;;;;;9.44;100.00;98145.31;5097702;28;20503;-70
2022/11/17 05:24:20;;;;;;;3.72;2.25;;;;;;;9.45;100.00;98137.25;5102564;28;20051;-72
2022/11/17 05:26:48;;;;;;;5.78;2.45;;;;;;;9.46;100.00;98144.22;5097648;28;20043;-71
2022/11/17 05:29:17;;;;;;;4.35;1.92;;;;;;;9.45;100.00;98137.25;5093762;28;20139;-71
2022/11/17 05:31:45;;;;;;;5.80;2.45;;;;;;;9.41;100.00;98130.53;5102308;28;20140;-69
2022/11/17 05:34:13;;;;;;;5.53;2.50;;;;;;;9.43;100.00;98136.53;5097441;28;20103;-71
2022/11/17 05:36:40;;;;;;;6.00;2.83;;;;;;;9.40;100.00;98144.72;5103065;28;20047;-70
2022/11/17 05:39:08;;;;;;;4.75;2.60;;;;;;;9.38;100.00;98145.78;5098498;28;20805;-71
2022/11/17 05:41:38;;;;;;;6.28;3.45;;;;;;;9.36;100.00;98143.25;5104116;28;20043;-68
2022/11/17 05:44:05;;;;;;;10.48;3.72;;;;;;;9.27;100.00;98146.63;5102689;28;20461;-73
2022/11/17 05:46:32;;;;;;;6.30;3.53;;;;;;;9.22;100.00;98143.47;5105228;28;20134;-69
2022/11/17 05:48:59;;;;;;;6.10;4.03;;;;;;;9.08;100.00;98138.44;5101991;28;20146;-69
2022/11/17 05:51:26;;;;;;;4.43;3.75;;;;;;;9.10;100.00;98147.91;5102686;28;20135;-70
2022/11/17 05:53:52;;;;;;;7.63;4.13;;;;;;;9.06;100.00;98138.53;5093420;28;20043;-69
2022/11/17 05:56:32;;;;;;;6.30;4.10;;;;;;;9.00;100.00;98154.00;5100871;28;20560;-71
2022/11/17 05:59:09;;;;;;;7.75;4.55;;;;;;;8.96;100.00;98145.50;5096372;28;20050;-71
2022/11/17 06:01:42;;;;;;;6.97;4.57;;;;;;;8.90;100.00;98150.38;5104639;28;20071;-71
2022/11/17 06:04:09;;;;;;;8.27;4.88;;;;;;;8.84;100.00;98145.56;5094930;28;20746;-71
2022/11/17 06:06:36;;;;;;;10.68;5.18;;;;;;;8.88;100.00;98147.84;5093624;28;20066;-72
2022/11/17 06:09:03;;;;;;;11.65;5.45;;;;;;;8.85;100.00;98147.25;5096479;28;20449;-72
2022/11/17 06:11:30;;;;;;;7.85;5.00;;;;;;;8.83;100.00;98143.88;5099599;28;20131;-72
2022/11/17 06:13:57;;;;;;;11.80;5.20;;;;;;;8.76;100.00;98128.53;5097916;28;20140;-72
2022/11/17 06:16:28;;;;;;;8.32;4.93;;;;;;;8.81;100.00;98129.97;5099330;28;20035;-71
2022/11/17 06:19:08;;;;;;;8.30;5.15;;;;;;;8.72;100.00;98105.94;5101561;28;20060;-73
2022/11/17 06:21:35;;;;;;;8.77;4.85;;;;;;;8.93;100.00;98135.16;5101844;28;20046;-72
2022/11/17 06:24:22;;;;;;;8.40;4.68;;;;;;;8.97;100.00;98125.22;5094757;28;20051;-72
2022/11/17 06:26:49;;;;;;;7.00;4.28;;;;;;;9.02;100.00;98125.69;5101298;28;20051;-74
2022/11/17 06:29:16;;;;;;;14.45;9.10;;;;;;;9.04;100.00;98136.97;5102361;28;20052;-71
2022/11/17 06:31:45;;;;;;;10.07;4.65;;;;;;;9.03;100.00;98130.00;5102936;28;21630;-72
2022/11/17 06:34:11;;;;;;;7.97;4.38;;;;;;;9.05;100.00;98133.38;5094254;28;20143;-72
2022/11/17 06:36:38;;;;;;;6.93;3.58;;;;;;;9.06;100.00;98113.94;5098132;28;20147;-71
2022/11/17 06:39:05;;;;;;;7.10;4.35;;;;;;;9.04;100.00;98105.28;5098166;28;20077;-72
2022/11/17 06:41:32;;;;;;;7.30;4.28;;;;;;;9.09;100.00;98116.34;5104846;28;20081;-72
2022/11/17 06:43:58;;;;;;;8.68;4.32;;;;;;;9.12;100.00;98116.13;5102554;28;20108;-72
2022/11/17 06:46:36;;;;;;;8.52;4.25;;;;;;;9.15;100.00;98126.41;5106242;28;20510;-72
2022/11/17 06:49:04;;;;;;;7.93;4.40;;;;;;;9.11;100.00;98103.88;5100908;28;20673;-73
2022/11/17 06:51:32;;;;;;;10.63;4.57;;;;;;;9.15;100.00;98107.94;5108247;28;20090;-71
2022/11/17 06:53:58;;;;;;;7.20;4.40;;;;;;;9.23;100.00;98110.84;5101856;28;20418;-73
2022/11/17 06:56:26;;;;;;;6.55;4.18;;;;;;;9.27;100.00;98111.44;5104510;28;20576;-72
2022/11/17 06:58:53;;;;;;;5.75;4.03;;;;;;;9.30;100.00;98108.53;5098090;28;20057;-72
2022/11/17 07:01:19;;;;;;;5.85;3.90;;;;;;;9.36;100.00;98098.34;5100099;28;20047;-71
2022/11/17 07:03:46;;;;;;;6.60;4.10;;;;;;;9.39;100.00;98102.56;5097268;28;20111;-71
2022/11/17 07:06:14;;;;;;;6.03;3.90;;;;;;;9.45;100.00;98100.25;5106757;28;20054;-71
2022/11/17 07:08:41;;;;;;;5.28;3.30;;;;;;;9.48;100.00;98089.44;5095347;28;20077;-73
2022/11/17 07:11:11;;;;;;;6.25;3.47;;;;;;;9.47;100.00;98098.34;5104045;28;20143;-72
2022/11/17 07:13:39;;;;;;;7.20;3.33;;;;;;;9.44;100.00;98098.56;5101120;28;20115;-72
2022/11/17 07:16:09;;;;;;;6.50;3.50;;;;;;;9.43;100.00;98101.38;5107994;28;20815;-71
2022/11/17 07:18:36;;;;;;;6.05;3.28;;;;;;;9.48;100.00;98088.63;5102814;27;20362;-71
2022/11/17 07:21:06;;;;;;;6.43;3.22;;;;;;;9.54;100.00;98092.59;5103713;28;20116;-73
2022/11/17 07:23:33;;;;;;;4.40;3.00;;;;;;;9.59;100.00;98085.97;5095213;28;20044;-75
2022/11/17 07:26:00;;;;;;;4.30;2.15;;;;;;;9.61;100.00;98083.19;5104678;28;20044;-72
2022/11/17 07:28:28;;;;;;;7.40;2.10;;;;;;;9.63;100.00;98097.13;5099678;28;20043;-75
2022/11/17 07:30:55;;;;;;;4.72;2.00;;;;;;;9.62;100.00;98076.94;5102966;28;20143;-72
2022/11/17 07:33:22;;;;;;;4.65;1.70;;;;;;;9.69;100.00;98086.91;5097169;27;20048;-73
2022/11/17 07:35:49;;;;;;;6.22;1.92;;;;;;;9.78;100.00;98085.31;5104178;28;20134;-72
2022/11/17 07:38:16;;;;;;;3.75;1.83;;;;;;;9.77;100.00;98083.66;5101606;28;20053;-71
2022/11/17 07:40:42;;;;;;;5.13;2.10;;;;;;;9.75;100.00;98075.03;5106665;28;20052;-72
2022/11/17 07:43:09;;;;;;;3.55;1.88;;;;;;;9.90;100.00;98081.72;5098808;28;20056;-72
2022/11/17 07:45:36;;;;;;;6.10;1.42;;;;;;;9.96;100.00;98073.28;5102028;28;20469;-72
2022/11/17 07:48:04;;;;;;;4.60;2.35;;;;;;;10.04;100.00;98078.78;5105104;28;20151;-72
2022/11/17 07:50:32;;;;;;;6.47;2.28;;;;;;;10.05;100.00;98058.47;5104257;28;20048;-72
2022/11/17 07:52:59;;;;;;;6.88;1.30;;;;;;;10.18;100.00;98069.72;5089548;28;20055;-72
2022/11/17 07:55:26;;;;;;;3.15;1.33;;;;;;;10.22;100.00;98067.72;5097457;28;20070;-71
2022/11/17 07:57:59;;;;;;;4.65;1.60;;;;;;;10.33;100.00;98078.22;5100681;28;20147;-72
2022/11/17 08:00:29;;;;;;;3.80;1.88;;;;;;;10.48;100.00;98076.97;5099254;28;20105;-72
2022/11/17 08:03:00;;;;;;;6.68;1.60;;;;;;;10.61;100.00;98074.13;5091635;28;20085;-71
2022/11/17 08:05:29;;;;;;;7.60;1.90;;;;;;;10.74;100.00;98072.97;5100870;28;20598;-71
2022/11/17 08:07:58;;;;;;;4.07;1.15;;;;;;;10.89;100.00;98078.75;5096110;28;20415;-73
2022/11/17 08:10:31;;;;;;;1.92;1.20;;;;;;;10.80;100.00;98043.34;5089807;28;20070;-71
2022/11/17 08:12:59;;;;;;;3.90;1.88;;;;;;;11.12;100.00;98079.47;5092707;28;20481;-71
2022/11/17 08:15:28;;;;;;;4.25;1.38;;;;;;;11.23;100.00;98069.59;5096086;28;20059;-71
2022/11/17 08:17:57;;;;;;;4.18;1.80;;;;;;;11.29;100.00;98076.19;5095619;28;20530;-70
2022/11/17 08:20:25;;;;;;;3.90;1.30;;;;;;;11.34;100.00;98073.97;5095432;28;20043;-70
2022/11/17 08:22:52;;;;;;;5.40;1.20;;;;;;;11.24;100.00;98073.09;5097363;28;20051;-71
2022/11/17 08:25:20;;;;;;;4.93;1.15;;;;;;;11.17;100.00;98082.56;5091271;28;20123;-70
2022/11/17 08:27:50;;;;;;;5.30;1.50;;;;;;;11.17;100.00;98077.25;5097848;28;20043;-71
2022/11/17 08:30:19;;;;;;;2.95;1.30;;;;;;;11.13;100.00;98075.84;5095404;28;20056;-72
2022/11/17 08:32:51;;;;;;;5.07;1.40;;;;;;;11.09;100.00;98080.56;5087891;28;20044;-71
2022/11/17 08:35:19;;;;;;;5.07;1.25;;;;;;;11.10;100.00;98078.75;5091934;28;20074;-70
2022/11/17 08:37:46;;;;;;;5.38;1.70;;;;;;;11.05;100.00;98084.44;5095434;28;20052;-71
2022/11/17 08:40:13;;;;;;;5.18;1.80;;;;;;;11.07;100.00;98084.31;5098213;28;20085;-72
2022/11/17 08:42:40;;;;;;;4.97;1.38;;;;;;;10.87;100.00;98054.22;5100041;28;20052;-74
2022/11/17 08:45:07;;;;;;;5.00;1.40;;;;;;;11.13;100.00;98074.03;5096394;28;20062;-70
2022/11/17 08:47:34;;;;;;;4.00;1.50;;;;;;;11.24;100.00;98073.94;5102465;28;20076;-70
2022/11/17 08:50:01;;;;;;;6.57;2.00;;;;;;;11.21;100.00;98065.41;5100259;28;20071;-72
2022/11/17 08:52:28;;;;;;;6.65;2.45;;;;;;;11.31;100.00;98063.66;5095530;28;20081;-72
2022/11/17 08:54:54;;;;;;;4.63;1.40;;;;;;;11.37;100.00;98063.09;5092492;28;20134;-69
2022/11/17 08:57:21;;;;;;;4.75;1.30;;;;;;;11.47;100.00;98060.50;5096952;28;20075;-69
2022/11/17 08:59:48;;;;;;;8.20;1.48;;;;;;;11.50;100.00;98053.09;5091980;28;20872;-71
2022/11/17 09:02:15;;;;;;;4.10;1.50;;;;;;;11.58;100.00;98061.25;5095848;28;20143;-72
2022/11/17 09:04:44;;;;;;;6.90;1.40;;;;;;;11.46;100.00;98046.41;5095797;28;20051;-71
2022/11/17 09:07:11;;;;;;;7.28;1.63;;;;;;;11.59;100.00;98056.78;5093744;28;20511;-72
2022/11/17 09:09:37;;;;;;;4.95;1.38;;;;;;;11.53;100.00;98062.59;5095144;28;20507;-72
2022/11/17 09:12:04;;;;;;;2.95;1.00;;;;;;;11.60;100.00;98072.56;5091300;28;21153;-73
2022/11/17 09:14:31;;;;;;;5.03;1.40;;;;;;;11.64;100.00;98075.78;5093233;28;20135;-72
2022/11/17 09:16:57;;;;;;;4.93;1.30;;;;;;;11.68;100.00;98077.16;5095715;28;20138;-72
2022/11/17 09:19:24;;;;;;;4.80;1.20;;;;;;;11.75;100.00;98088.91;5094989;28;20126;-71
2022/11/17 09:21:51;;;;;;;9.40;1.60;;;;;;;11.63;100.00;98100.59;5092524;28;20496;-69
2022/11/17 09:24:17;;;;;;;7.45;2.55;;;;;;;11.58;100.00;98095.69;5090738;28;20051;-74
2022/11/17 09:26:44;;;;;;;4.80;1.25;;;;;;;11.55;100.00;98103.91;5088602;28;20082;-74
2022/11/17 09:29:10;;;;;;;6.85;1.27;;;;;;;11.54;100.00;98110.19;5095889;28;20048;-72
2022/11/17 09:31:37;;;;;;;7.03;1.60;;;;;;;11.54;100.00;98127.91;5096836;28;20047;-70
2022/11/17 09:34:04;;;;;;;8.40;1.35;;;;;;;11.50;100.00;98116.72;5089936;28;20047;-70
2022/11/17 09:36:32;;;;;;;7.75;2.00;;;;;;;11.45;100.00;98124.25;5097468;28;20046;-72
2022/11/17 09:38:58;;;;;;;3.83;1.13;;;;;;;11.52;100.00;98128.03;5094237;28;20048;-73
2022/11/17 09:41:56;;;;;;;8.82;1.90;;;;;;;11.53;100.00;98142.97;5094102;28;20070;-74
2022/11/17 09:44:23;;;;;;;7.03;1.90;;;;;;;11.52;100.00;98120.06;5078766;28;20053;-74
2022/11/17 09:47:02;;;;;;;5.07;1.20;;;;;;;11.84;100.00;98141.16;5094509;28;20248;-71
2022/11/17 09:49:50;;;;;;;5.68;1.20;;;;;;;12.03;100.00;98144.84;5091146;28;20566;-71
2022/11/17 09:52:42;;;;;;;8.75;1.60;;;;;;;11.85;100.00;98126.94;5090836;28;20470;-71
2022/11/17 09:55:21;;;;;;;6.45;1.23;;;;;;;12.04;100.00;98150.03;5085509;28;20179;-72
2022/11/17 09:57:55;;;;;;;8.95;1.65;;;;;;;11.98;100.00;98142.59;5091635;28;20503;-71
2022/11/17 10:00:24;;;;;;;4.68;1.20;;;;;;;12.20;100.00;98158.28;5095675;28;20473;-70
2022/11/17 10:02:53;;;;;;;7.68;1.85;;;;;;;12.00;100.00;98137.16;5088006;28;20408;-73
2022/11/17 10:05:25;;;;;;;6.30;1.30;;;;;;;12.14;100.00;98169.44;5090464;28;20048;-72
2022/11/17 10:07:54;;;;;;;5.85;1.10;;;;;;;12.16;100.00;98164.00;5092211;28;21031;-72
2022/11/17 10:10:36;;;;;;;6.70;1.25;;;;;;;12.11;100.00;98169.75;5089296;28;21156;-74
2022/11/17 10:13:05;;;;;;;7.40;1.70;;;;;;;12.11;100.00;98169.75;5093929;28;20061;-69
2022/11/17 10:16:10;;;;;;;5.80;1.55;;;;;;;12.21;100.00;98183.84;5091956;28;20051;-74
2022/11/17 10:18:38;;;;;;;5.30;1.45;;;;;;;12.35;100.00;98166.69;5098702;28;20139;-75
2022/11/17 10:21:08;;;;;;;5.13;1.45;;;;;;;12.49;100.00;98168.13;5102678;28;20051;-74
2022/11/17 10:23:39;;;;;;;5.80;1.35;;;;;;;12.51;100.00;98182.09;5101570;28;20055;-72
2022/11/17 10:26:14;;;;;;;4.13;1.40;;;;;;;12.55;100.00;98172.88;5103233;28;20142;-69
2022/11/17 10:28:41;;;;;;;8.18;1.58;;;;;;;12.53;100.00;98180.13;5100759;28;20108;-72
2022/11/17 10:31:14;;;;;;;5.80;1.40;;;;;;;12.48;100.00;98177.06;5101170;28;20120;-71
2022/11/17 10:33:43;;;;;;;6.35;1.65;;;;;;;12.40;100.00;98191.03;5099726;28;20554;-68
2022/11/17 10:36:23;;;;;;;12.05;3.92;;;;;;;12.21;100.00;98191.81;5092524;28;20047;-73
2022/11/17 10:38:53;;;;;;;7.60;1.90;;;;;;;12.21;100.00;98196.28;5100062;28;20438;-72
2022/11/17 10:41:29;;;;;;;9.27;2.22;;;;;;;12.22;100.00;98200.63;5101975;28;20134;-70
2022/11/17 10:44:07;;;;;;;7.13;1.60;;;;;;;12.09;100.00;98177.00;5098271;28;20046;-73
2022/11/17 10:46:56;;;;;;;11.05;1.90;;;;;;;12.17;100.00;98195.72;5100672;28;20103;-71
2022/11/17 10:49:39;;;;;;;4.57;1.30;;;;;;;12.16;100.00;98191.38;5102730;28;20115;-70
2022/11/17 10:52:14;;;;;;;6.60;1.67;;;;;;;12.22;100.00;98182.88;5102351;28;20048;-74
2022/11/17 10:54:42;;;;;;;7.80;1.45;;;;;;;12.24;100.00;98191.53;5100493;28;20544;-68
2022/11/17 10:57:35;;;;;;;9.15;1.60;;;;;;;12.29;100.00;98193.78;5106268;28;20052;-70
2022/11/17 11:00:01;;;;;;;10.35;2.08;;;;;;;12.33;100.00;98186.38;5098909;28;20148;-74
2022/11/17 11:02:37;;;;;;;7.05;1.92;;;;;;;12.40;100.00;98180.41;5104809;28;20657;-74
2022/11/17 11:05:07;;;;;;;6.45;1.63;;;;;;;12.46;100.00;98179.00;5101293;28;20053;-74
2022/11/17 11:07:34;;;;;;;5.50;1.42;;;;;;;12.58;100.00;98189.38;5102214;28;20071;-73
2022/11/17 11:10:13;;;;;;;5.88;2.08;;;;;;;12.62;100.00;98189.91;5107282;28;20178;-71
2022/11/17 11:13:05;;;;;;;8.50;2.40;;;;;;;12.78;100.00;98195.53;5106255;28;20036;-73
2022/11/17 11:15:35;;;;;;;10.20;1.92;;;;;;;12.77;100.00;98193.84;5098943;28;20071;-71
2022/11/17 11:18:11;;;;;;;13.02;1.80;;;;;;;12.63;100.00;98173.84;5101479;28;20086;-70
2022/11/17 11:21:00;;;;;;;7.45;2.17;;;;;;;12.68;100.00;98185.88;5104654;28;20051;-69
2022/11/17 11:23:46;;;;;;;6.82;2.30;;;;;;;12.69;100.00;98185.75;5104403;28;20099;-73
2022/11/17 11:26:28;;;;;;;8.27;2.60;;;;;;;12.42;100.00;98167.00;5099049;28;20549;-72
2022/11/17 11:29:14;;;;;;;6.80;1.75;;;;;;;12.37;100.00;98206.38;5098320;28;20044;-68
2022/11/17 11:31:43;;;;;;;7.50;1.88;;;;;;;12.15;100.00;98192.34;5094197;28;20067;-71
2022/11/17 11:34:18;;;;;;;10.30;1.98;;;;;;;12.16;100.00;98199.34;5089527;27;20048;-69
2022/11/17 11:37:08;;;;;;;6.28;1.90;;;;;;;12.09;100.00;98194.72;5091714;28;20097;-74
2022/11/17 11:40:01;;;;;;;6.63;2.60;;;;;;;12.01;100.00;98211.28;5092332;28;20485;-73
2022/11/17 11:43:05;;;;;;;8.48;1.98;;;;;;;11.92;100.00;98210.28;5096433;28;20063;-74
2022/11/17 11:45:56;;;;;;;7.82;1.42;;;;;;;11.85;100.00;98216.25;5097128;28;20067;-71
2022/11/17 11:48:31;;;;;;;7.57;1.85;;;;;;;11.58;100.00;98209.69;5092713;28;20036;-71
2022/11/17 11:51:00;;;;;;;11.30;2.60;;;;;;;11.47;100.00;98217.72;5095280;28;20050;-73
2022/11/17 11:53:42;;;;;;;8.02;2.55;;;;;;;11.49;100.00;98218.41;5102757;28;20048;-70
2022/11/17 11:56:20;;;;;;;10.07;1.90;;;;;;;11.61;100.00;98208.59;5091128;28;20047;-76
2022/11/17 11:58:57;;;;;;;11.93;2.38;;;;;;;11.67;100.00;98207.19;5088396;27;20448;-74
2022/11/17 12:01:43;;;;;;;13.07;2.10;;;;;;;11.72;100.00;98213.78;5099867;28;20067;-73
2022/11/17 12:04:39;;;;;;;12.18;1.88;;;;;;;11.71;100.00;98208.63;5097558;28;20063;-74
2022/11/17 12:07:16;;;;;;;7.72;1.85;;;;;;;11.68;100.00;98203.56;5098205;28;20138;-72
2022/11/17 12:09:58;;;;;;;8.75;2.45;;;;;;;11.90;100.00;98222.00;5093591;28;20051;-71
2022/11/17 12:12:31;;;;;;;8.02;3.05;;;;;;;11.99;100.00;98217.69;5096891;28;20048;-72
2022/11/17 12:15:16;;;;;;;7.13;1.83;;;;;;;12.16;100.00;98217.06;5093207;28;20412;-74
2022/11/17 12:18:25;;;;;;;8.43;1.30;;;;;;;12.41;100.00;98215.75;5097036;28;20131;-72
2022/11/17 12:20:58;;;;;;;7.50;1.77;;;;;;;12.43;100.00;98197.88;5087118;28;20107;-73